Langholm, United Kingdom
Current Conditions -  °F | °C
As of 4:20 PM on Monday 24 Nov 2014 (Local Time) from EGNT Reporting Station
Clear Clear  
Wind Chill: 38°   Ceiling: Unl
Heat Index: 41°   Visibility: 6mi
Dew Point: 37°   Wind: 5mph
Humidity: 87%   Direction: 240°WSW
Pressure: 30.24"   Gusts: NA
Location:  55.15°N, 3°W
Report Text: EGNT 241620Z 24004KT CAVOK 05/03 Q1024
Loading
Personal Weather Stations






























Interactive Weather Map New forecast layout! Learn more

10-Day Weather Forecast

Advertisements
Track Severe Weather on mobile